Time;durP1;ratioP1;P1;durP2;ratioP2;P2;SDS_P1;SDS_P2;PMS_P1;PMS_P2;Temp;Humidity;BMP_temperature;BMP_pressure;BME280_temperature;BME280_humidity;BME280_pressure;Samples;Min_cycle;Max_cycle;Signal;HPM_P1;HPM_P2
2024/04/02 00:00:45;;;;;;;7.40;3.03;;;;;;;8.12;100.00;99743.72;6057949;23;20018;-73
2024/04/02 00:03:11;;;;;;;;;;;;;;;8.12;100.00;99742.91;6083087;23;20098;-74
2024/04/02 00:05:38;;;;;;;4.50;3.25;;;;;;;8.09;100.00;99748.81;6083071;23;19917;-74
2024/04/02 00:08:06;;;;;;;6.15;3.00;;;;;;;8.07;100.00;99751.78;6085798;23;20025;-75
2024/04/02 00:10:34;;;;;;;9.15;3.47;;;;;;;8.04;100.00;99749.66;6060122;23;20388;-75
2024/04/02 00:13:01;;;;;;;8.07;2.67;;;;;;;8.03;100.00;99747.25;6060490;23;20356;-74
2024/04/02 00:15:27;;;;;;;5.70;3.63;;;;;;;8.05;100.00;99745.09;6080213;23;20010;-74
2024/04/02 00:17:53;;;;;;;5.13;2.92;;;;;;;8.02;100.00;99743.78;6060256;23;20125;-74
2024/04/02 00:20:19;;;;;;;7.95;2.97;;;;;;;7.98;100.00;99756.06;6059093;23;20049;-75
2024/04/02 00:22:45;;;;;;;8.23;3.03;;;;;;;7.97;100.00;99757.16;6034260;23;20021;-74
2024/04/02 00:25:10;;;;;;;10.25;2.70;;;;;;;7.97;100.00;99761.69;6034763;23;20014;-74
2024/04/02 00:27:37;;;;;;;7.97;3.28;;;;;;;7.99;100.00;99748.88;6057624;23;20065;-73
2024/04/02 00:30:03;;;;;;;8.43;3.38;;;;;;;7.97;100.00;99757.16;6058923;23;20022;-74
2024/04/02 00:32:30;;;;;;;5.82;3.05;;;;;;;7.97;100.00;99746.50;6058648;23;20102;-75
2024/04/02 00:34:56;;;;;;;9.57;2.92;;;;;;;7.93;100.00;99751.59;6059406;23;20821;-73
2024/04/02 00:37:22;;;;;;;8.63;3.05;;;;;;;7.95;100.00;99751.31;6057546;23;20014;-74
2024/04/02 00:39:47;;;;;;;5.05;3.20;;;;;;;7.93;100.00;99758.78;6057919;23;20026;-75
2024/04/02 00:42:14;;;;;;;4.95;3.50;;;;;;;7.93;100.00;99775.59;6057350;23;20121;-73
2024/04/02 00:44:40;;;;;;;8.80;4.00;;;;;;;7.89;100.00;99763.88;6082448;23;20516;-74
2024/04/02 00:47:08;;;;;;;6.65;2.80;;;;;;;7.89;100.00;99758.53;6032274;23;20061;-74
2024/04/02 00:49:34;;;;;;;10.45;4.18;;;;;;;7.88;100.00;99762.28;6033560;23;20042;-74
2024/04/02 00:52:02;;;;;;;8.32;3.63;;;;;;;7.89;100.00;99763.06;6034177;23;20384;-75
2024/04/02 00:54:28;;;;;;;8.98;3.05;;;;;;;7.85;100.00;99756.69;6080967;23;20014;-75
2024/04/02 00:56:54;;;;;;;6.00;3.17;;;;;;;7.85;100.00;99768.16;6033098;23;20025;-75
2024/04/02 00:59:21;;;;;;;8.02;3.22;;;;;;;7.86;100.00;99767.09;6033865;23;20776;-74
2024/04/02 01:01:47;;;;;;;8.05;3.05;;;;;;;7.87;100.00;99768.69;6057312;23;20105;-74
2024/04/02 01:04:13;;;;;;;6.07;2.72;;;;;;;7.89;100.00;99768.41;6033243;23;20101;-75
2024/04/02 01:06:39;;;;;;;7.53;3.55;;;;;;;7.87;100.00;99766.03;6033572;23;20053;-74
2024/04/02 01:09:05;;;;;;;5.05;3.00;;;;;;;7.91;100.00;99772.38;6084460;23;20053;-74
2024/04/02 01:11:31;;;;;;;;;;;;;;;7.88;100.00;99769.47;6083069;23;20284;-74
2024/04/02 01:13:57;;;;;;;5.82;3.15;;;;;;;7.89;100.00;99763.06;6058007;23;20363;-75
2024/04/02 01:16:22;;;;;;;5.78;2.85;;;;;;;7.90;100.00;99775.31;6081312;23;20049;-74
2024/04/02 01:18:49;;;;;;;7.95;2.83;;;;;;;7.87;100.00;99770.56;6084186;23;20053;-75
2024/04/02 01:21:16;;;;;;;5.25;2.70;;;;;;;7.84;100.00;99774.56;6057636;23;20049;-75
2024/04/02 01:23:42;;;;;;;7.68;3.13;;;;;;;7.85;100.00;99783.34;6057650;23;20021;-75
2024/04/02 01:26:08;;;;;;;5.78;3.08;;;;;;;7.84;100.00;99777.22;6034423;23;20022;-74
2024/04/02 01:28:34;;;;;;;6.53;3.08;;;;;;;7.83;100.00;99780.16;6058383;23;20029;-74
2024/04/02 01:31:02;;;;;;;6.18;2.90;;;;;;;7.80;100.00;99780.72;6058503;23;20093;-74
2024/04/02 01:33:28;;;;;;;6.93;3.03;;;;;;;7.76;100.00;99777.78;6034417;23;20018;-75
2024/04/02 01:35:55;;;;;;;4.65;2.42;;;;;;;7.73;100.00;99781.03;6058082;23;20015;-73
2024/04/02 01:38:21;;;;;;;5.70;2.60;;;;;;;7.70;100.00;99781.56;6057920;23;20022;-74
2024/04/02 01:40:47;;;;;;;7.05;3.33;;;;;;;7.70;100.00;99783.44;6033418;23;20018;-74
2024/04/02 01:43:12;;;;;;;7.50;2.90;;;;;;;7.68;100.00;99778.38;6084268;23;20098;-73
2024/04/02 01:45:40;;;;;;;7.20;3.70;;;;;;;7.66;100.00;99778.66;6053186;23;20015;-73
2024/04/02 01:48:06;;;;;;;7.32;2.55;;;;;;;7.66;100.00;99780.53;6052499;23;20034;-74
2024/04/02 01:50:32;;;;;;;8.98;3.40;;;;;;;7.66;100.00;99785.84;6052543;23;20069;-74
2024/04/02 01:52:59;;;;;;;9.23;3.85;;;;;;;7.66;100.00;99780.53;6054643;23;20046;-74
2024/04/02 01:55:25;;;;;;;8.68;3.35;;;;;;;7.62;100.00;99779.47;6052046;23;20081;-74
2024/04/02 01:57:51;;;;;;;7.18;2.95;;;;;;;7.62;100.00;99779.47;6052161;23;20364;-73
2024/04/02 02:00:17;;;;;;;5.90;2.30;;;;;;;7.64;100.00;99787.97;6054271;23;20014;-73
2024/04/02 02:02:44;;;;;;;8.88;2.75;;;;;;;7.65;100.00;99784.22;6028165;23;20605;-73
2024/04/02 02:05:09;;;;;;;5.40;2.63;;;;;;;7.68;100.00;99789.03;6028929;23;20019;-73
2024/04/02 02:07:35;;;;;;;5.85;2.85;;;;;;;7.69;100.00;99790.63;6050631;23;20022;-74
2024/04/02 02:10:01;;;;;;;5.95;2.70;;;;;;;7.72;100.00;99795.41;6054642;23;20018;-73
2024/04/02 02:12:27;;;;;;;6.57;2.60;;;;;;;7.74;100.00;99798.59;6055770;23;20018;-73
2024/04/02 02:14:53;;;;;;;7.07;2.95;;;;;;;7.74;100.00;99792.47;6057159;23;20085;-73
2024/04/02 02:17:18;;;;;;;6.47;2.97;;;;;;;7.75;100.00;99794.88;6054785;23;20018;-73
2024/04/02 02:19:44;;;;;;;9.75;3.70;;;;;;;7.73;100.00;99791.69;6055341;23;20015;-74
2024/04/02 02:22:10;;;;;;;6.55;2.92;;;;;;;7.72;100.00;99795.41;6055579;23;20069;-74
2024/04/02 02:24:36;;;;;;;5.85;2.95;;;;;;;7.71;100.00;99783.13;6054886;23;20361;-73
2024/04/02 02:27:02;;;;;;;4.68;2.75;;;;;;;7.71;100.00;99788.47;6057214;23;20019;-75
2024/04/02 02:29:28;;;;;;;6.97;3.67;;;;;;;7.71;100.00;99791.13;6078957;23;20022;-74
2024/04/02 02:31:55;;;;;;;9.70;2.92;;;;;;;7.72;100.00;99795.41;6030748;23;20022;-74
2024/04/02 02:34:21;;;;;;;6.15;3.72;;;;;;;7.69;100.00;99789.81;6056517;23;20093;-74
2024/04/02 02:36:46;;;;;;;8.13;4.05;;;;;;;7.66;100.00;99797.31;6055040;23;20022;-72
2024/04/02 02:39:12;;;;;;;7.20;3.80;;;;;;;7.69;100.00;99800.50;6056297;23;20018;-73
2024/04/02 02:41:41;;;;;;;6.65;3.85;;;;;;;7.64;100.00;99799.44;6055194;23;20045;-73
2024/04/02 02:44:06;;;;;;;9.27;3.83;;;;;;;7.64;100.00;99807.41;6055050;23;20015;-72
2024/04/02 02:46:32;;;;;;;7.22;3.85;;;;;;;7.65;100.00;99800.22;6079046;23;20389;-72
2024/04/02 02:48:59;;;;;;;7.03;3.90;;;;;;;7.65;100.00;99809.03;6059554;23;20022;-73
2024/04/02 02:51:26;;;;;;;10.73;4.00;;;;;;;7.64;100.00;99817.28;6059364;23;20448;-73
2024/04/02 02:53:51;;;;;;;;;;;;;;;7.64;100.00;99814.63;6035433;23;20030;-72
2024/04/02 02:56:17;;;;;;;6.80;3.22;;;;;;;7.66;100.00;99802.63;6082705;23;20042;-72
2024/04/02 02:58:43;;;;;;;8.57;4.40;;;;;;;7.62;100.00;99806.09;6085145;23;20010;-72
2024/04/02 03:01:09;;;;;;;9.02;4.20;;;;;;;7.61;100.00;99813.31;6035821;23;20025;-72
2024/04/02 03:03:35;;;;;;;9.43;4.20;;;;;;;7.61;100.00;99812.50;6059063;23;20025;-74
2024/04/02 03:06:00;;;;;;;9.68;4.40;;;;;;;7.60;100.00;99810.91;6058598;23;20018;-74
2024/04/02 03:08:26;;;;;;;10.75;4.72;;;;;;;7.64;100.00;99814.63;6035695;23;20042;-73
2024/04/02 03:10:55;;;;;;;8.57;4.90;;;;;;;7.64;100.00;99817.28;6059989;23;20341;-73
2024/04/02 03:13:24;;;;;;;9.38;4.25;;;;;;;7.66;100.00;99817.84;6058977;23;20655;-72
2024/04/02 03:15:49;;;;;;;9.38;4.70;;;;;;;7.64;100.00;99818.06;6036885;23;20602;-74
2024/04/02 03:18:15;;;;;;;7.53;4.30;;;;;;;7.64;100.00;99820.75;6061872;23;20480;-73
2024/04/02 03:20:41;;;;;;;7.90;4.80;;;;;;;7.64;100.00;99830.59;6086105;23;20019;-74
2024/04/02 03:23:07;;;;;;;7.57;4.28;;;;;;;7.66;100.00;99823.16;6014273;23;20453;-71
2024/04/02 03:25:32;;;;;;;5.85;4.18;;;;;;;7.65;100.00;99819.69;6087000;23;20094;-74
2024/04/02 03:27:58;;;;;;;8.48;3.83;;;;;;;7.69;100.00;99825.28;6037136;23;20026;-72
2024/04/02 03:30:24;;;;;;;9.57;4.63;;;;;;;7.71;100.00;99828.44;6037532;23;20022;-74
2024/04/02 03:32:49;;;;;;;9.45;4.78;;;;;;;7.71;100.00;99831.13;6061027;23;20430;-72
2024/04/02 03:35:15;;;;;;;11.95;4.60;;;;;;;7.75;100.00;99836.72;6061484;23;20089;-73
2024/04/02 03:37:41;;;;;;;6.82;4.18;;;;;;;7.73;100.00;99831.66;6036686;23;20022;-72
2024/04/02 03:40:07;;;;;;;9.07;4.40;;;;;;;7.74;100.00;99837.78;6037428;23;20022;-73
2024/04/02 03:42:32;;;;;;;9.38;4.13;;;;;;;7.76;100.00;99841.75;6085213;23;20663;-73
2024/04/02 03:44:58;;;;;;;8.68;4.22;;;;;;;7.76;100.00;99839.09;6036571;23;20022;-72
2024/04/02 03:47:26;;;;;;;7.18;3.75;;;;;;;7.79;100.00;99843.91;6085284;23;20022;-73
2024/04/02 03:49:52;;;;;;;10.32;4.28;;;;;;;7.82;100.00;99840.69;6060691;23;20042;-72
2024/04/02 03:52:17;;;;;;;8.57;4.28;;;;;;;7.82;100.00;99840.69;6060690;23;20053;-74
2024/04/02 03:54:46;;;;;;;8.48;4.57;;;;;;;7.81;100.00;99844.41;6087032;23;20322;-73
2024/04/02 03:57:12;;;;;;;9.68;4.55;;;;;;;7.80;100.00;99850.03;6062066;23;20016;-73
2024/04/02 03:59:37;;;;;;;9.93;4.35;;;;;;;7.76;100.00;99849.75;6087592;23;20014;-73
2024/04/02 04:02:03;;;;;;;7.82;4.13;;;;;;;7.78;100.00;99858.28;6061659;23;20022;-74
2024/04/02 04:04:29;;;;;;;8.10;4.55;;;;;;;7.80;100.00;99856.16;6060114;23;20019;-73
2024/04/02 04:06:55;;;;;;;8.68;4.50;;;;;;;7.81;100.00;99855.09;6061666;23;20093;-73
2024/04/02 04:09:21;;;;;;;8.55;4.40;;;;;;;7.83;100.00;99860.94;6012843;23;20061;-74
2024/04/02 04:11:47;;;;;;;11.25;4.53;;;;;;;7.83;100.00;99863.59;6037362;23;20018;-74
2024/04/02 04:14:13;;;;;;;11.30;5.47;;;;;;;7.79;100.00;99865.22;6060195;23;20018;-71
2024/04/02 04:16:39;;;;;;;8.68;4.85;;;;;;;7.78;100.00;99863.59;6061481;23;20457;-73
2024/04/02 04:19:05;;;;;;;7.88;4.90;;;;;;;7.81;100.00;99870.28;6037317;23;20018;-73
2024/04/02 04:21:31;;;;;;;11.93;4.97;;;;;;;7.83;100.00;99866.25;6062228;23;20389;-73
2024/04/02 04:23:57;;;;;;;10.90;5.38;;;;;;;7.84;100.00;99878.50;6036529;23;20085;-73
2024/04/02 04:26:23;;;;;;;7.40;4.93;;;;;;;7.85;100.00;99874.78;6085707;23;20018;-72
2024/04/02 04:28:50;;;;;;;9.38;5.05;;;;;;;7.85;100.00;99873.97;6037310;23;20018;-74
2024/04/02 04:31:16;;;;;;;9.90;5.75;;;;;;;7.87;100.00;99882.53;6086726;23;20025;-72
2024/04/02 04:33:41;;;;;;;11.40;5.38;;;;;;;7.88;100.00;99876.13;6083307;23;20014;-73
2024/04/02 04:36:08;;;;;;;11.82;5.88;;;;;;;7.87;100.00;99877.19;6084619;23;20018;-72
2024/04/02 04:38:34;;;;;;;10.73;5.32;;;;;;;7.87;100.00;99877.97;6032398;23;20025;-71
2024/04/02 04:41:00;;;;;;;11.27;5.93;;;;;;;7.88;100.00;99879.56;6082055;23;20015;-72
2024/04/02 04:43:25;;;;;;;12.27;6.10;;;;;;;7.88;100.00;99878.78;6059544;23;20029;-72
2024/04/02 04:45:55;;;;;;;12.45;6.47;;;;;;;7.88;100.00;99881.44;6084995;23;20010;-72
2024/04/02 04:48:21;;;;;;;8.93;6.07;;;;;;;7.88;100.00;99892.91;6060573;23;20464;-72
2024/04/02 04:51:04;;;;;;;12.23;6.95;;;;;;;7.89;100.00;99886.50;6060268;23;20014;-72
2024/04/02 04:53:31;;;;;;;12.30;6.15;;;;;;;7.86;100.00;99892.38;6061259;23;20397;-72
2024/04/02 04:56:06;;;;;;;10.55;6.15;;;;;;;7.88;100.00;99892.91;6085965;23;20020;-72
2024/04/02 04:58:33;;;;;;;10.85;6.50;;;;;;;7.88;100.00;99898.22;6051985;23;20018;-72
2024/04/02 05:00:59;;;;;;;13.90;7.18;;;;;;;7.90;100.00;99903.28;6082607;23;20038;-71
2024/04/02 05:03:25;;;;;;;11.10;5.95;;;;;;;7.91;100.00;99902.22;6060402;23;20093;-72
2024/04/02 05:06:02;;;;;;;9.68;6.18;;;;;;;7.90;100.00;99904.09;6035538;23;20089;-72
2024/04/02 05:08:28;;;;;;;11.35;5.97;;;;;;;7.92;100.00;99901.97;6060276;23;20014;-72
2024/04/02 05:10:54;;;;;;;9.15;5.75;;;;;;;7.94;100.00;99907.81;6084286;23;20021;-71
2024/04/02 05:13:20;;;;;;;10.30;5.95;;;;;;;7.93;100.00;99908.09;6035369;23;20073;-72
2024/04/02 05:15:46;;;;;;;11.60;6.47;;;;;;;7.97;100.00;99905.66;6083481;23;20003;-72
2024/04/02 05:18:12;;;;;;;11.77;7.13;;;;;;;7.97;100.00;99913.66;6036050;23;20459;-72
2024/04/02 05:20:38;;;;;;;16.75;7.03;;;;;;;8.00;100.00;99913.13;6060275;23;20014;-72
2024/04/02 05:23:05;;;;;;;10.90;6.25;;;;;;;7.99;100.00;99917.66;6059564;23;20010;-72
2024/04/02 05:25:31;;;;;;;11.75;7.13;;;;;;;7.99;100.00;99917.66;6060072;23;20093;-72
2024/04/02 05:27:56;;;;;;;11.82;7.32;;;;;;;8.01;100.00;99917.41;6035129;23;20109;-73
2024/04/02 05:30:22;;;;;;;13.45;6.10;;;;;;;8.00;100.00;99918.47;6035125;23;20424;-72
2024/04/02 05:32:48;;;;;;;10.80;6.50;;;;;;;8.02;100.00;99921.66;6035566;23;20033;-72
2024/04/02 05:35:14;;;;;;;11.18;6.68;;;;;;;8.05;100.00;99923.75;6085829;23;20041;-73
2024/04/02 05:37:40;;;;;;;13.05;7.63;;;;;;;8.04;100.00;99925.63;6084113;23;20041;-72
2024/04/02 05:40:07;;;;;;;11.05;7.07;;;;;;;8.06;100.00;99930.69;6058861;23;20089;-72
2024/04/02 05:42:33;;;;;;;11.00;6.90;;;;;;;8.08;100.00;99932.03;6060228;23;20029;-72
2024/04/02 05:45:00;;;;;;;12.18;6.78;;;;;;;8.11;100.00;99925.34;6057737;23;20025;-72
2024/04/02 05:47:25;;;;;;;10.05;6.95;;;;;;;8.14;100.00;99940.81;6059130;23;20029;-72
2024/04/02 05:49:51;;;;;;;10.05;6.93;;;;;;;8.16;100.00;99939.47;6058658;23;20574;-71
2024/04/02 05:52:18;;;;;;;13.88;6.90;;;;;;;8.15;100.00;99942.41;6059593;23;20508;-72
2024/04/02 05:54:44;;;;;;;14.52;7.10;;;;;;;8.17;100.00;99945.59;6060491;23;20511;-72
2024/04/02 05:57:10;;;;;;;11.77;7.32;;;;;;;8.21;100.00;99954.66;6086384;23;20010;-72
2024/04/02 05:59:37;;;;;;;9.98;7.15;;;;;;;8.21;100.00;99952.00;6087264;23;20073;-72
2024/04/02 06:02:03;;;;;;;11.15;7.25;;;;;;;8.22;100.00;99953.59;6037139;23;20025;-72
2024/04/02 06:04:28;;;;;;;12.02;7.20;;;;;;;8.22;100.00;99953.59;6038920;23;20026;-71
2024/04/02 06:06:54;;;;;;;10.82;7.10;;;;;;;8.25;100.00;99954.91;6087465;23;20841;-71
2024/04/02 06:09:21;;;;;;;12.45;6.68;;;;;;;8.26;100.00;99959.16;6083974;23;20022;-72
2024/04/02 06:11:46;;;;;;;8.93;6.63;;;;;;;8.26;100.00;99967.94;6085310;23;20022;-71
2024/04/02 06:14:13;;;;;;;12.27;6.85;;;;;;;8.27;100.00;99960.78;6034954;23;20076;-71
2024/04/02 06:16:38;;;;;;;13.93;7.57;;;;;;;8.26;100.00;99959.16;6059214;23;20030;-71
2024/04/02 06:19:04;;;;;;;10.23;6.55;;;;;;;8.25;100.00;99962.91;6059049;23;20097;-72
2024/04/02 06:21:30;;;;;;;12.75;7.57;;;;;;;8.28;100.00;99967.69;6060457;23;20014;-71
2024/04/02 06:23:55;;;;;;;12.25;7.35;;;;;;;8.31;100.00;99972.47;6085302;23;20065;-72
2024/04/02 06:26:21;;;;;;;10.80;6.68;;;;;;;8.32;100.00;99974.06;6060265;23;20018;-71
2024/04/02 06:28:46;;;;;;;11.02;6.60;;;;;;;8.35;100.00;99963.69;6037489;23;20018;-72
2024/04/02 06:31:12;;;;;;;11.45;7.05;;;;;;;8.37;100.00;99971.41;6084896;23;20076;-71
2024/04/02 06:33:37;;;;;;;13.63;7.47;;;;;;;8.38;100.00;99971.13;6084787;23;20014;-72
2024/04/02 06:36:03;;;;;;;11.38;8.13;;;;;;;8.44;100.00;99967.38;6060093;23;20017;-71
2024/04/02 06:38:29;;;;;;;14.15;7.47;;;;;;;8.43;100.00;99965.78;6060145;23;20030;-71
2024/04/02 06:40:55;;;;;;;8.93;6.45;;;;;;;8.46;100.00;99965.22;6083729;23;20018;-72
2024/04/02 06:43:20;;;;;;;11.65;7.28;;;;;;;8.52;100.00;99967.88;6083451;23;20021;-71
2024/04/02 06:45:56;;;;;;;9.10;5.72;;;;;;;8.53;100.00;99972.94;6078900;23;20694;-71
2024/04/02 06:48:23;;;;;;;11.85;6.28;;;;;;;8.52;100.00;99974.00;6057072;23;20015;-71
2024/04/02 06:51:03;;;;;;;10.30;7.00;;;;;;;8.55;100.00;99978.03;6057493;23;20022;-71
2024/04/02 06:53:30;;;;;;;12.93;7.18;;;;;;;8.56;100.00;99974.28;6056310;23;20082;-72
2024/04/02 06:55:55;;;;;;;12.10;7.50;;;;;;;8.53;100.00;99986.28;6081249;23;20082;-72
2024/04/02 06:58:22;;;;;;;11.27;7.15;;;;;;;8.48;100.00;99989.78;6033901;23;20143;-72
2024/04/02 07:00:49;;;;;;;10.15;6.57;;;;;;;8.52;100.00;99994.56;6056673;23;20015;-72
2024/04/02 07:03:19;;;;;;;13.38;6.78;;;;;;;8.52;100.00;99979.34;6079871;23;20022;-72
2024/04/02 07:05:45;;;;;;;11.48;6.97;;;;;;;8.48;100.00;99984.44;6095784;23;20020;-72
2024/04/02 07:08:11;;;;;;;11.02;7.57;;;;;;;8.51;100.00;99991.09;6123303;23;20970;-72
2024/04/02 07:10:40;;;;;;;10.52;7.47;;;;;;;8.46;100.00;99999.13;6148945;23;20012;-72
2024/04/02 07:13:06;;;;;;;14.27;8.55;;;;;;;8.48;100.00;99999.66;6173360;23;20422;-72
2024/04/02 07:15:32;;;;;;;12.25;8.23;;;;;;;8.48;100.00;100000.47;6125536;23;20595;-72
2024/04/02 07:17:57;;;;;;;12.38;7.15;;;;;;;8.48;100.00;100016.47;6124667;23;20451;-71
2024/04/02 07:20:23;;;;;;;13.82;7.88;;;;;;;8.48;100.00;100005.00;6149542;23;20021;-72
2024/04/02 07:22:49;;;;;;;12.80;8.23;;;;;;;8.50;100.00;100010.06;6101215;23;20482;-73
2024/04/02 07:25:15;;;;;;;12.90;7.57;;;;;;;8.50;100.00;100018.06;6149315;23;20013;-72
2024/04/02 07:27:41;;;;;;;10.52;7.40;;;;;;;8.52;100.00;100007.91;6149311;23;20017;-74
2024/04/02 07:30:07;;;;;;;9.38;6.53;;;;;;;8.52;100.00;100022.03;6149351;23;20092;-72
2024/04/02 07:32:33;;;;;;;10.07;6.50;;;;;;;8.56;100.00;100027.66;6149199;23;20019;-71
2024/04/02 07:34:59;;;;;;;10.23;7.38;;;;;;;8.54;100.00;100030.59;6147684;23;20020;-72
2024/04/02 07:37:26;;;;;;;12.10;7.60;;;;;;;8.56;100.00;100027.66;6175872;23;20092;-70
2024/04/02 07:39:53;;;;;;;10.88;7.20;;;;;;;8.57;100.00;100029.25;6149884;23;20020;-72
2024/04/02 07:42:18;;;;;;;10.70;6.15;;;;;;;8.54;100.00;100035.13;6124087;23;20021;-73
2024/04/02 07:44:45;;;;;;;11.10;6.43;;;;;;;8.55;100.00;100031.41;6149520;23;20009;-72
2024/04/02 07:47:10;;;;;;;14.35;7.47;;;;;;;8.55;100.00;100037.53;6174411;23;20013;-72
2024/04/02 07:49:36;;;;;;;13.38;7.38;;;;;;;8.58;100.00;100036.19;6148564;23;20025;-74
2024/04/02 07:52:01;;;;;;;10.45;6.93;;;;;;;8.58;100.00;100041.50;6148239;23;20542;-72
2024/04/02 07:54:27;;;;;;;12.05;6.25;;;;;;;8.61;100.00;100043.66;6123806;23;20041;-72
2024/04/02 07:56:53;;;;;;;16.55;8.05;;;;;;;8.63;100.00;100044.16;6149792;23;20059;-72
2024/04/02 07:59:20;;;;;;;12.70;6.38;;;;;;;8.66;100.00;100040.94;6147486;23;20455;-74
2024/04/02 08:01:46;;;;;;;12.70;6.40;;;;;;;8.66;100.00;100049.75;6176140;23;20483;-71
2024/04/02 08:04:11;;;;;;;11.07;6.53;;;;;;;8.71;100.00;100046.25;6147940;23;20491;-72
2024/04/02 08:06:38;;;;;;;12.02;6.35;;;;;;;8.75;100.00;100060.69;6143877;23;20607;-72
2024/04/02 08:09:04;;;;;;;;;;;;;;;8.72;100.00;100058.53;6145730;23;20009;-72
2024/04/02 08:11:30;;;;;;;12.77;6.72;;;;;;;8.75;100.00;100055.34;6119547;23;20361;-72
2024/04/02 08:13:55;;;;;;;11.68;5.45;;;;;;;8.82;100.00;100057.72;6142717;23;20029;-72
2024/04/02 08:16:22;;;;;;;9.80;6.05;;;;;;;8.86;100.00;100062.22;6143698;23;20024;-72
2024/04/02 08:18:48;;;;;;;12.13;6.35;;;;;;;8.87;100.00;100073.69;6145934;23;20017;-72
2024/04/02 08:21:14;;;;;;;8.80;6.18;;;;;;;8.93;100.00;100069.91;6119250;23;20017;-73
2024/04/02 08:23:40;;;;;;;9.35;6.00;;;;;;;8.95;100.00;100068.59;6143414;23;20017;-73
2024/04/02 08:26:05;;;;;;;8.60;5.10;;;;;;;8.94;100.00;100067.00;6143365;23;20023;-72
2024/04/02 08:28:32;;;;;;;7.35;5.03;;;;;;;8.99;100.00;100074.16;6144426;23;20020;-72
2024/04/02 08:30:57;;;;;;;8.10;5.72;;;;;;;9.09;100.00;100081.34;6118476;23;20048;-71
2024/04/02 08:33:23;;;;;;;10.35;5.78;;;;;;;9.13;100.00;100074.34;6118715;23;20021;-71
2024/04/02 08:35:49;;;;;;;8.50;5.05;;;;;;;9.22;100.00;100083.41;6144307;23;20063;-72
2024/04/02 08:38:15;;;;;;;9.43;5.40;;;;;;;9.34;100.00;100083.84;6142856;23;20016;-72
2024/04/02 08:40:41;;;;;;;8.80;4.60;;;;;;;9.43;100.00;100087.53;6119624;23;20017;-72
2024/04/02 08:43:08;;;;;;;8.02;5.30;;;;;;;9.50;100.00;100090.69;6144680;23;20024;-72
2024/04/02 08:45:40;;;;;;;9.55;5.07;;;;;;;9.53;100.00;100090.13;6143354;23;20014;-72
2024/04/02 08:48:06;;;;;;;7.22;4.80;;;;;;;9.67;100.00;100094.84;6145168;23;20517;-72
2024/04/02 08:50:32;;;;;;;10.23;4.95;;;;;;;9.81;100.00;100096.59;6143145;23;20009;-71
2024/04/02 08:52:58;;;;;;;6.78;4.65;;;;;;;9.93;100.00;100098.91;6167968;23;20024;-72
2024/04/02 08:55:24;;;;;;;7.53;4.40;;;;;;;10.00;100.00;100093.25;6145480;23;20022;-71
2024/04/02 08:57:52;;;;;;;6.85;3.90;;;;;;;9.97;100.00;100097.28;6119114;23;20435;-72
2024/04/02 09:00:19;;;;;;;10.73;5.30;;;;;;;10.07;100.00;100099.06;6144287;23;20045;-72
2024/04/02 09:02:46;;;;;;;7.28;4.18;;;;;;;10.21;100.00;100099.22;6118756;23;20013;-72
2024/04/02 09:05:12;;;;;;;7.55;4.90;;;;;;;10.28;100.00;100099.69;6145540;23;20084;-74
2024/04/02 09:07:39;;;;;;;5.75;4.30;;;;;;;10.45;100.00;100104.63;6097776;23;20124;-72
2024/04/02 09:10:05;;;;;;;7.72;3.78;;;;;;;10.53;100.00;100112.84;6098670;23;20379;-71
2024/04/02 09:12:31;;;;;;;7.05;3.72;;;;;;;10.52;100.00;100105.09;6148984;23;20378;-74
2024/04/02 09:14:56;;;;;;;8.27;4.15;;;;;;;10.51;100.00;100115.00;6123597;23;20017;-72
2024/04/02 09:17:22;;;;;;;6.60;4.05;;;;;;;10.40;100.00;100110.81;6147423;23;20070;-73
2024/04/02 09:19:47;;;;;;;5.70;3.58;;;;;;;10.33;100.00;100123.75;6175426;23;20013;-72
2024/04/02 09:22:16;;;;;;;7.60;3.78;;;;;;;10.31;100.00;100121.34;6148027;23;20028;-72
2024/04/02 09:24:41;;;;;;;4.68;3.50;;;;;;;10.35;100.00;100130.41;6099939;23;20017;-72
2024/04/02 09:27:07;;;;;;;6.82;3.65;;;;;;;10.39;100.00;100131.44;6147998;23;20013;-72
2024/04/02 09:29:32;;;;;;;6.35;3.55;;;;;;;10.54;100.00;100118.97;6174511;23;20440;-73
2024/04/02 09:31:59;;;;;;;;;;;;;;;10.55;100.00;100126.72;6175618;23;20024;-71
2024/04/02 09:34:27;;;;;;;6.88;3.40;;;;;;;10.58;100.00;100131.53;6148100;23;19919;-74
2024/04/02 09:37:11;;;;;;;5.80;3.40;;;;;;;10.65;100.00;100136.53;6174554;23;20017;-72
2024/04/02 09:39:38;;;;;;;5.35;3.00;;;;;;;10.67;100.00;100134.38;6123336;23;20087;-73
2024/04/02 09:42:05;;;;;;;6.97;3.85;;;;;;;10.74;100.00;100134.03;6172870;23;20045;-72
2024/04/02 09:44:32;;;;;;;5.00;3.55;;;;;;;10.88;100.00;100127.69;6147610;23;20020;-74
2024/04/02 09:46:59;;;;;;;7.60;3.00;;;;;;;10.91;100.00;100135.16;6124353;23;20005;-73
2024/04/02 09:49:25;;;;;;;6.45;3.40;;;;;;;10.90;100.00;100135.44;6098663;23;20095;-73
2024/04/02 09:51:54;;;;;;;6.78;3.13;;;;;;;10.86;100.00;100142.47;6148973;23;20435;-73
2024/04/02 09:54:22;;;;;;;6.68;2.92;;;;;;;10.95;100.00;100130.03;6173317;23;20370;-72
2024/04/02 09:56:49;;;;;;;6.68;3.30;;;;;;;10.99;100.00;100136.41;6123349;23;20039;-72
2024/04/02 09:59:15;;;;;;;5.65;2.95;;;;;;;11.10;100.00;100132.50;6122879;23;20020;-71
2024/04/02 10:01:44;;;;;;;6.47;3.05;;;;;;;11.24;100.00;100142.53;6148126;23;20104;-72
2024/04/02 10:04:11;;;;;;;6.43;3.10;;;;;;;11.27;100.00;100141.97;6097121;23;20013;-72
2024/04/02 10:06:38;;;;;;;5.82;2.40;;;;;;;11.47;100.00;100144.38;6143534;23;20095;-72
2024/04/02 10:09:06;;;;;;;5.32;3.15;;;;;;;11.58;100.00;100140.44;6116182;23;20017;-72
2024/04/02 10:11:42;;;;;;;6.85;2.40;;;;;;;11.70;100.00;100150.72;6145332;23;20009;-71
2024/04/02 10:14:10;;;;;;;4.93;2.80;;;;;;;11.91;100.00;100152.03;6141719;23;20021;-73
2024/04/02 10:16:40;;;;;;;4.80;2.47;;;;;;;12.00;100.00;100157.56;6118254;23;20486;-71
2024/04/02 10:19:20;;;;;;;4.30;2.53;;;;;;;12.17;100.00;100151.63;6144017;23;20598;-71
2024/04/02 10:21:47;;;;;;;4.45;2.00;;;;;;;12.24;100.00;100166.25;6143358;23;20017;-71
2024/04/02 10:24:18;;;;;;;5.70;2.08;;;;;;;12.21;100.00;100150.75;6142095;23;20013;-71
2024/04/02 10:26:44;;;;;;;7.15;2.33;;;;;;;12.15;100.00;100151.94;6145194;23;20017;-74
2024/04/02 10:29:09;;;;;;;4.15;2.17;;;;;;;12.08;100.00;100156.09;6143259;23;20009;-73
2024/04/02 10:31:38;;;;;;;6.43;1.88;;;;;;;11.88;100.00;100152.63;6144601;23;20431;-71
2024/04/02 10:34:09;;;;;;;6.60;2.35;;;;;;;11.84;100.00;100158.88;6092934;23;20039;-73
2024/04/02 10:36:40;;;;;;;5.43;1.52;;;;;;;11.79;100.00;100149.00;6143173;23;20047;-72
2024/04/02 10:39:12;;;;;;;4.65;1.90;;;;;;;11.72;100.00;100153.94;6143119;23;20021;-72
2024/04/02 10:41:38;;;;;;;4.05;2.00;;;;;;;11.64;100.00;100154.56;6143902;23;20040;-72
2024/04/02 10:44:05;;;;;;;5.50;1.83;;;;;;;11.60;100.00;100157.06;6141895;23;20439;-72
2024/04/02 10:46:31;;;;;;;4.50;1.35;;;;;;;11.66;100.00;100163.94;6118067;23;20018;-71
2024/04/02 10:49:00;;;;;;;;;;;;;;;11.71;100.00;100155.00;6119222;23;20025;-74
2024/04/02 10:51:27;;;;;;;5.63;1.70;;;;;;;11.68;100.00;100164.44;6144119;23;19919;-73
2024/04/02 10:53:54;;;;;;;5.18;1.65;;;;;;;11.55;100.00;100159.78;6141631;23;20013;-72
2024/04/02 10:56:23;;;;;;;3.55;2.08;;;;;;;11.48;100.00;100180.81;6142399;23;20013;-72
2024/04/02 10:58:51;;;;;;;4.68;1.77;;;;;;;11.50;100.00;100175.94;6118174;23;20020;-72
2024/04/02 11:01:18;;;;;;;4.55;2.20;;;;;;;11.61;100.00;100174.72;6140430;23;20077;-72
2024/04/02 11:03:45;;;;;;;3.97;1.90;;;;;;;11.58;100.00;100169.13;6140999;23;20018;-73
2024/04/02 11:06:11;;;;;;;5.43;2.20;;;;;;;11.56;100.00;100172.13;6158773;23;20094;-72
2024/04/02 11:08:40;;;;;;;5.28;1.80;;;;;;;11.43;100.00;100172.84;6148156;23;20103;-72
2024/04/02 11:11:06;;;;;;;6.85;2.55;;;;;;;11.42;100.00;100179.28;6145493;23;20758;-73
2024/04/02 11:13:32;;;;;;;4.97;1.90;;;;;;;11.35;100.00;100186.88;6097464;23;20024;-72
2024/04/02 11:15:58;;;;;;;6.13;1.80;;;;;;;11.27;100.00;100190.22;6122111;23;20020;-72
2024/04/02 11:18:25;;;;;;;2.67;1.70;;;;;;;11.20;100.00;100202.06;6146078;23;20032;-72
2024/04/02 11:20:58;;;;;;;7.07;1.98;;;;;;;11.17;100.00;100197.28;6174364;23;20013;-72
2024/04/02 11:26:15;;;;;;;4.38;2.42;;;;;;;11.20;100.00;100193.25;6146559;23;20025;-73